sensor_id;sensor_type;location;lat;lon;timestamp;P1;durP1;ratioP1;P2;durP2;ratioP2
75135;SDS011;63707;52.212;9.540;2023-03-01T00:01:45;18.98;;;6.72;;
75135;SDS011;63707;52.212;9.540;2023-03-01T00:04:12;11.77;;;5.47;;
75135;SDS011;63707;52.212;9.540;2023-03-01T00:06:37;16.70;;;5.85;;
75135;SDS011;63707;52.212;9.540;2023-03-01T00:09:03;14.40;;;6.18;;
75135;SDS011;63707;52.212;9.540;2023-03-01T00:11:29;16.13;;;6.43;;
75135;SDS011;63707;52.212;9.540;2023-03-01T00:13:57;16.33;;;7.60;;
75135;SDS011;63707;52.212;9.540;2023-03-01T00:16:24;17.48;;;8.00;;
75135;SDS011;63707;52.212;9.540;2023-03-01T00:18:51;16.65;;;7.95;;
75135;SDS011;63707;52.212;9.540;2023-03-01T00:21:18;18.45;;;7.93;;
75135;SDS011;63707;52.212;9.540;2023-03-01T00:23:46;18.58;;;8.27;;
75135;SDS011;63707;52.212;9.540;2023-03-01T00:26:13;16.88;;;8.32;;
75135;SDS011;63707;52.212;9.540;2023-03-01T00:28:41;14.93;;;7.10;;
75135;SDS011;63707;52.212;9.540;2023-03-01T00:31:08;20.00;;;7.88;;
75135;SDS011;63707;52.212;9.540;2023-03-01T00:33:35;16.35;;;7.50;;
75135;SDS011;63707;52.212;9.540;2023-03-01T00:36:00;14.43;;;7.22;;
75135;SDS011;63707;52.212;9.540;2023-03-01T00:38:28;17.67;;;7.22;;
75135;SDS011;63707;52.212;9.540;2023-03-01T00:40:54;14.07;;;7.40;;
75135;SDS011;63707;52.212;9.540;2023-03-01T00:43:19;15.95;;;7.28;;
75135;SDS011;63707;52.212;9.540;2023-03-01T00:45:45;15.02;;;6.95;;
75135;SDS011;63707;52.212;9.540;2023-03-01T00:48:10;16.15;;;6.90;;
75135;SDS011;63707;52.212;9.540;2023-03-01T00:50:36;15.75;;;7.18;;
75135;SDS011;63707;52.212;9.540;2023-03-01T00:53:01;17.02;;;6.70;;
75135;SDS011;63707;52.212;9.540;2023-03-01T00:55:28;19.30;;;8.15;;
75135;SDS011;63707;52.212;9.540;2023-03-01T00:57:54;14.48;;;6.72;;
75135;SDS011;63707;52.212;9.540;2023-03-01T01:00:19;15.52;;;7.28;;
75135;SDS011;63707;52.212;9.540;2023-03-01T01:02:46;19.45;;;7.80;;
75135;SDS011;63707;52.212;9.540;2023-03-01T01:05:12;10.48;;;5.55;;
75135;SDS011;63707;52.212;9.540;2023-03-01T01:07:38;17.10;;;6.93;;
75135;SDS011;63707;52.212;9.540;2023-03-01T01:10:04;15.68;;;6.85;;
75135;SDS011;63707;52.212;9.540;2023-03-01T01:12:32;16.10;;;7.05;;
75135;SDS011;63707;52.212;9.540;2023-03-01T01:14:57;16.88;;;6.72;;
75135;SDS011;63707;52.212;9.540;2023-03-01T01:17:23;15.32;;;7.10;;
75135;SDS011;63707;52.212;9.540;2023-03-01T01:19:49;16.75;;;7.55;;
75135;SDS011;63707;52.212;9.540;2023-03-01T01:22:14;17.60;;;7.10;;
75135;SDS011;63707;52.212;9.540;2023-03-01T01:24:40;15.82;;;7.03;;
75135;SDS011;63707;52.212;9.540;2023-03-01T01:27:05;15.32;;;7.13;;
75135;SDS011;63707;52.212;9.540;2023-03-01T01:29:33;16.48;;;7.15;;
75135;SDS011;63707;52.212;9.540;2023-03-01T01:31:59;16.58;;;6.53;;
75135;SDS011;63707;52.212;9.540;2023-03-01T01:34:24;12.80;;;6.10;;
75135;SDS011;63707;52.212;9.540;2023-03-01T01:36:50;14.18;;;7.32;;
75135;SDS011;63707;52.212;9.540;2023-03-01T01:39:18;15.93;;;6.20;;
75135;SDS011;63707;52.212;9.540;2023-03-01T01:41:44;15.18;;;7.38;;
75135;SDS011;63707;52.212;9.540;2023-03-01T01:44:10;18.33;;;6.05;;
75135;SDS011;63707;52.212;9.540;2023-03-01T01:46:39;14.77;;;6.90;;
75135;SDS011;63707;52.212;9.540;2023-03-01T01:49:10;16.65;;;7.68;;
75135;SDS011;63707;52.212;9.540;2023-03-01T01:51:42;16.25;;;7.10;;
75135;SDS011;63707;52.212;9.540;2023-03-01T01:54:12;18.90;;;6.75;;
75135;SDS011;63707;52.212;9.540;2023-03-01T01:56:42;13.32;;;6.63;;
75135;SDS011;63707;52.212;9.540;2023-03-01T01:59:11;15.07;;;6.45;;
75135;SDS011;63707;52.212;9.540;2023-03-01T02:01:37;12.27;;;5.95;;
75135;SDS011;63707;52.212;9.540;2023-03-01T02:04:04;15.75;;;6.80;;
75135;SDS011;63707;52.212;9.540;2023-03-01T02:06:32;16.15;;;6.60;;
75135;SDS011;63707;52.212;9.540;2023-03-01T02:09:02;15.25;;;7.05;;
75135;SDS011;63707;52.212;9.540;2023-03-01T02:11:31;17.60;;;7.28;;
75135;SDS011;63707;52.212;9.540;2023-03-01T02:13:57;16.65;;;6.90;;
75135;SDS011;63707;52.212;9.540;2023-03-01T02:16:23;14.68;;;7.40;;
75135;SDS011;63707;52.212;9.540;2023-03-01T02:18:50;16.40;;;7.13;;
75135;SDS011;63707;52.212;9.540;2023-03-01T02:24:08;15.88;;;7.28;;
75135;SDS011;63707;52.212;9.540;2023-03-01T02:26:45;16.08;;;7.13;;
75135;SDS011;63707;52.212;9.540;2023-03-01T02:29:14;17.33;;;7.75;;
75135;SDS011;63707;52.212;9.540;2023-03-01T02:31:40;16.30;;;7.43;;
75135;SDS011;63707;52.212;9.540;2023-03-01T02:34:09;22.23;;;7.75;;
75135;SDS011;63707;52.212;9.540;2023-03-01T02:36:37;17.52;;;7.22;;
75135;SDS011;63707;52.212;9.540;2023-03-01T02:39:06;16.42;;;7.90;;
75135;SDS011;63707;52.212;9.540;2023-03-01T02:41:39;13.68;;;6.60;;
75135;SDS011;63707;52.212;9.540;2023-03-01T02:44:08;17.98;;;6.68;;
75135;SDS011;63707;52.212;9.540;2023-03-01T02:46:41;14.90;;;7.63;;
75135;SDS011;63707;52.212;9.540;2023-03-01T02:49:15;15.30;;;7.22;;
75135;SDS011;63707;52.212;9.540;2023-03-01T02:51:45;13.85;;;6.68;;
75135;SDS011;63707;52.212;9.540;2023-03-01T02:54:20;14.93;;;6.88;;
75135;SDS011;63707;52.212;9.540;2023-03-01T02:56:49;14.60;;;7.20;;
75135;SDS011;63707;52.212;9.540;2023-03-01T02:59:16;14.57;;;6.93;;
75135;SDS011;63707;52.212;9.540;2023-03-01T03:01:45;17.13;;;7.95;;
75135;SDS011;63707;52.212;9.540;2023-03-01T03:04:13;16.40;;;7.22;;
75135;SDS011;63707;52.212;9.540;2023-03-01T03:06:42;19.55;;;7.63;;
75135;SDS011;63707;52.212;9.540;2023-03-01T03:09:07;19.45;;;8.48;;
75135;SDS011;63707;52.212;9.540;2023-03-01T03:11:33;22.38;;;7.85;;
75135;SDS011;63707;52.212;9.540;2023-03-01T03:13:58;19.13;;;7.97;;
75135;SDS011;63707;52.212;9.540;2023-03-01T03:16:24;19.50;;;8.52;;
75135;SDS011;63707;52.212;9.540;2023-03-01T03:18:51;17.35;;;8.15;;
75135;SDS011;63707;52.212;9.540;2023-03-01T03:21:16;19.35;;;8.52;;
75135;SDS011;63707;52.212;9.540;2023-03-01T03:23:42;21.15;;;7.80;;
75135;SDS011;63707;52.212;9.540;2023-03-01T03:26:08;19.65;;;8.15;;
75135;SDS011;63707;52.212;9.540;2023-03-01T03:28:33;20.95;;;8.90;;
75135;SDS011;63707;52.212;9.540;2023-03-01T03:31:00;19.77;;;8.20;;
75135;SDS011;63707;52.212;9.540;2023-03-01T03:33:28;13.55;;;6.85;;
75135;SDS011;63707;52.212;9.540;2023-03-01T03:35:55;20.10;;;8.10;;
75135;SDS011;63707;52.212;9.540;2023-03-01T03:38:21;17.92;;;7.28;;
75135;SDS011;63707;52.212;9.540;2023-03-01T03:40:47;16.10;;;7.35;;
75135;SDS011;63707;52.212;9.540;2023-03-01T03:43:15;20.38;;;7.53;;
75135;SDS011;63707;52.212;9.540;2023-03-01T03:45:43;16.90;;;7.55;;
75135;SDS011;63707;52.212;9.540;2023-03-01T03:48:09;18.88;;;7.45;;
75135;SDS011;63707;52.212;9.540;2023-03-01T03:50:35;16.83;;;7.18;;
75135;SDS011;63707;52.212;9.540;2023-03-01T03:53:03;15.95;;;7.43;;
75135;SDS011;63707;52.212;9.540;2023-03-01T03:55:30;16.00;;;7.35;;
75135;SDS011;63707;52.212;9.540;2023-03-01T03:57:58;15.40;;;7.38;;
75135;SDS011;63707;52.212;9.540;2023-03-01T04:00:27;24.35;;;8.85;;
75135;SDS011;63707;52.212;9.540;2023-03-01T04:02:53;20.15;;;8.43;;
75135;SDS011;63707;52.212;9.540;2023-03-01T04:05:21;17.20;;;8.30;;
75135;SDS011;63707;52.212;9.540;2023-03-01T04:07:47;19.50;;;8.60;;
75135;SDS011;63707;52.212;9.540;2023-03-01T04:10:14;17.35;;;8.15;;
75135;SDS011;63707;52.212;9.540;2023-03-01T04:12:41;18.60;;;7.63;;
75135;SDS011;63707;52.212;9.540;2023-03-01T04:15:10;17.83;;;7.60;;
75135;SDS011;63707;52.212;9.540;2023-03-01T04:17:39;17.67;;;7.30;;
75135;SDS011;63707;52.212;9.540;2023-03-01T04:20:05;17.05;;;7.65;;
75135;SDS011;63707;52.212;9.540;2023-03-01T04:22:32;18.20;;;7.63;;
75135;SDS011;63707;52.212;9.540;2023-03-01T04:24:58;16.38;;;7.60;;
75135;SDS011;63707;52.212;9.540;2023-03-01T04:27:28;18.25;;;7.13;;
75135;SDS011;63707;52.212;9.540;2023-03-01T04:29:53;14.60;;;6.55;;
75135;SDS011;63707;52.212;9.540;2023-03-01T04:32:19;18.23;;;7.07;;
75135;SDS011;63707;52.212;9.540;2023-03-01T04:34:44;18.58;;;8.63;;
75135;SDS011;63707;52.212;9.540;2023-03-01T04:37:10;14.98;;;6.45;;
75135;SDS011;63707;52.212;9.540;2023-03-01T04:39:35;18.95;;;6.78;;
75135;SDS011;63707;52.212;9.540;2023-03-01T04:42:10;14.00;;;6.78;;
75135;SDS011;63707;52.212;9.540;2023-03-01T04:44:37;15.55;;;6.13;;
75135;SDS011;63707;52.212;9.540;2023-03-01T04:47:02;15.10;;;6.18;;
75135;SDS011;63707;52.212;9.540;2023-03-01T04:49:28;15.40;;;6.93;;
75135;SDS011;63707;52.212;9.540;2023-03-01T04:51:53;16.88;;;7.15;;
75135;SDS011;63707;52.212;9.540;2023-03-01T04:54:19;13.15;;;6.05;;
75135;SDS011;63707;52.212;9.540;2023-03-01T04:56:44;16.92;;;6.13;;
75135;SDS011;63707;52.212;9.540;2023-03-01T04:59:10;16.75;;;6.68;;
75135;SDS011;63707;52.212;9.540;2023-03-01T05:01:38;16.35;;;6.82;;
75135;SDS011;63707;52.212;9.540;2023-03-01T05:04:07;18.15;;;7.05;;
75135;SDS011;63707;52.212;9.540;2023-03-01T05:06:38;15.38;;;6.63;;
75135;SDS011;63707;52.212;9.540;2023-03-01T05:09:04;18.65;;;6.63;;
75135;SDS011;63707;52.212;9.540;2023-03-01T05:11:30;17.63;;;7.40;;
75135;SDS011;63707;52.212;9.540;2023-03-01T05:13:58;15.32;;;7.32;;
75135;SDS011;63707;52.212;9.540;2023-03-01T05:16:24;20.25;;;6.82;;
75135;SDS011;63707;52.212;9.540;2023-03-01T05:18:51;17.90;;;7.78;;
75135;SDS011;63707;52.212;9.540;2023-03-01T05:21:16;18.33;;;7.72;;
75135;SDS011;63707;52.212;9.540;2023-03-01T05:23:42;16.88;;;7.53;;
75135;SDS011;63707;52.212;9.540;2023-03-01T05:26:07;17.10;;;7.00;;
75135;SDS011;63707;52.212;9.540;2023-03-01T05:28:34;18.10;;;6.80;;
75135;SDS011;63707;52.212;9.540;2023-03-01T05:30:59;16.58;;;6.65;;
75135;SDS011;63707;52.212;9.540;2023-03-01T05:33:25;20.27;;;7.22;;
75135;SDS011;63707;52.212;9.540;2023-03-01T05:35:53;17.83;;;7.53;;
75135;SDS011;63707;52.212;9.540;2023-03-01T05:38:19;20.73;;;7.35;;
75135;SDS011;63707;52.212;9.540;2023-03-01T05:40:46;18.38;;;7.40;;
75135;SDS011;63707;52.212;9.540;2023-03-01T05:43:13;18.63;;;7.93;;
75135;SDS011;63707;52.212;9.540;2023-03-01T05:45:41;20.98;;;8.35;;
75135;SDS011;63707;52.212;9.540;2023-03-01T05:48:07;17.05;;;7.60;;
75135;SDS011;63707;52.212;9.540;2023-03-01T05:50:35;17.92;;;7.53;;
75135;SDS011;63707;52.212;9.540;2023-03-01T05:53:03;18.40;;;7.53;;
75135;SDS011;63707;52.212;9.540;2023-03-01T05:55:31;15.57;;;7.55;;
75135;SDS011;63707;52.212;9.540;2023-03-01T05:57:57;19.75;;;7.88;;
75135;SDS011;63707;52.212;9.540;2023-03-01T06:00:24;21.00;;;8.45;;
75135;SDS011;63707;52.212;9.540;2023-03-01T06:02:49;23.75;;;8.20;;
75135;SDS011;63707;52.212;9.540;2023-03-01T06:05:17;27.35;;;10.55;;
75135;SDS011;63707;52.212;9.540;2023-03-01T06:07:43;25.75;;;10.93;;
75135;SDS011;63707;52.212;9.540;2023-03-01T06:10:11;24.27;;;9.48;;
75135;SDS011;63707;52.212;9.540;2023-03-01T06:12:37;24.15;;;9.63;;
75135;SDS011;63707;52.212;9.540;2023-03-01T06:15:05;26.23;;;9.60;;
75135;SDS011;63707;52.212;9.540;2023-03-01T06:17:32;24.27;;;9.38;;
75135;SDS011;63707;52.212;9.540;2023-03-01T06:20:02;25.08;;;10.77;;
75135;SDS011;63707;52.212;9.540;2023-03-01T06:22:29;21.75;;;9.82;;
75135;SDS011;63707;52.212;9.540;2023-03-01T06:24:54;23.65;;;10.82;;
75135;SDS011;63707;52.212;9.540;2023-03-01T06:27:21;27.20;;;11.45;;
75135;SDS011;63707;52.212;9.540;2023-03-01T06:29:47;23.88;;;11.70;;
75135;SDS011;63707;52.212;9.540;2023-03-01T06:32:12;24.38;;;11.43;;
75135;SDS011;63707;52.212;9.540;2023-03-01T06:34:38;26.08;;;11.38;;
75135;SDS011;63707;52.212;9.540;2023-03-01T06:37:03;26.88;;;11.50;;
75135;SDS011;63707;52.212;9.540;2023-03-01T06:39:30;28.80;;;12.25;;
75135;SDS011;63707;52.212;9.540;2023-03-01T06:41:55;29.95;;;13.60;;
75135;SDS011;63707;52.212;9.540;2023-03-01T06:44:22;25.63;;;12.70;;
75135;SDS011;63707;52.212;9.540;2023-03-01T06:46:48;25.42;;;11.82;;
75135;SDS011;63707;52.212;9.540;2023-03-01T06:49:13;34.63;;;12.02;;
75135;SDS011;63707;52.212;9.540;2023-03-01T06:51:41;26.77;;;12.13;;
75135;SDS011;63707;52.212;9.540;2023-03-01T06:54:06;35.90;;;14.80;;
75135;SDS011;63707;52.212;9.540;2023-03-01T06:56:32;66.93;;;29.42;;
75135;SDS011;63707;52.212;9.540;2023-03-01T06:58:58;56.88;;;25.88;;
75135;SDS011;63707;52.212;9.540;2023-03-01T07:01:25;32.30;;;13.75;;
75135;SDS011;63707;52.212;9.540;2023-03-01T07:03:50;33.85;;;14.50;;
75135;SDS011;63707;52.212;9.540;2023-03-01T07:06:16;40.33;;;17.85;;
75135;SDS011;63707;52.212;9.540;2023-03-01T07:08:42;27.20;;;13.15;;
75135;SDS011;63707;52.212;9.540;2023-03-01T07:11:08;26.63;;;13.55;;
75135;SDS011;63707;52.212;9.540;2023-03-01T07:13:34;39.95;;;19.92;;
75135;SDS011;63707;52.212;9.540;2023-03-01T07:15:59;29.70;;;15.85;;
75135;SDS011;63707;52.212;9.540;2023-03-01T07:18:26;27.77;;;13.95;;
75135;SDS011;63707;52.212;9.540;2023-03-01T07:20:52;31.67;;;13.30;;
75135;SDS011;63707;52.212;9.540;2023-03-01T07:23:18;27.80;;;13.15;;
75135;SDS011;63707;52.212;9.540;2023-03-01T07:25:43;25.80;;;11.88;;
75135;SDS011;63707;52.212;9.540;2023-03-01T07:28:09;23.80;;;11.23;;
75135;SDS011;63707;52.212;9.540;2023-03-01T07:30:34;20.95;;;11.05;;
75135;SDS011;63707;52.212;9.540;2023-03-01T07:33:01;22.52;;;10.60;;
75135;SDS011;63707;52.212;9.540;2023-03-01T07:35:28;18.80;;;10.48;;
75135;SDS011;63707;52.212;9.540;2023-03-01T07:37:53;23.15;;;12.40;;
75135;SDS011;63707;52.212;9.540;2023-03-01T07:40:19;24.88;;;13.52;;
75135;SDS011;63707;52.212;9.540;2023-03-01T07:42:44;24.23;;;12.77;;
75135;SDS011;63707;52.212;9.540;2023-03-01T07:45:10;27.13;;;14.30;;
75135;SDS011;63707;52.212;9.540;2023-03-01T07:47:36;23.10;;;12.73;;
75135;SDS011;63707;52.212;9.540;2023-03-01T07:50:02;19.90;;;12.10;;
75135;SDS011;63707;52.212;9.540;2023-03-01T07:52:30;23.42;;;12.77;;
75135;SDS011;63707;52.212;9.540;2023-03-01T07:54:55;21.17;;;12.68;;
75135;SDS011;63707;52.212;9.540;2023-03-01T07:57:21;30.10;;;13.00;;
75135;SDS011;63707;52.212;9.540;2023-03-01T07:59:47;19.13;;;12.45;;
75135;SDS011;63707;52.212;9.540;2023-03-01T08:02:12;21.45;;;13.25;;
75135;SDS011;63707;52.212;9.540;2023-03-01T08:04:38;25.52;;;14.38;;
75135;SDS011;63707;52.212;9.540;2023-03-01T08:07:04;27.02;;;15.50;;
75135;SDS011;63707;52.212;9.540;2023-03-01T08:09:31;29.42;;;15.85;;
75135;SDS011;63707;52.212;9.540;2023-03-01T08:11:59;25.38;;;14.50;;
75135;SDS011;63707;52.212;9.540;2023-03-01T08:14:25;20.13;;;12.57;;
75135;SDS011;63707;52.212;9.540;2023-03-01T08:16:52;18.52;;;11.00;;
75135;SDS011;63707;52.212;9.540;2023-03-01T08:19:17;16.33;;;10.60;;
75135;SDS011;63707;52.212;9.540;2023-03-01T08:21:43;13.10;;;10.25;;
75135;SDS011;63707;52.212;9.540;2023-03-01T08:24:09;18.45;;;11.85;;
75135;SDS011;63707;52.212;9.540;2023-03-01T08:26:38;14.02;;;10.20;;
75135;SDS011;63707;52.212;9.540;2023-03-01T08:29:04;20.15;;;11.23;;
75135;SDS011;63707;52.212;9.540;2023-03-01T08:31:30;14.00;;;9.82;;
75135;SDS011;63707;52.212;9.540;2023-03-01T08:33:58;13.73;;;9.15;;
75135;SDS011;63707;52.212;9.540;2023-03-01T08:36:27;15.63;;;10.38;;
75135;SDS011;63707;52.212;9.540;2023-03-01T08:38:54;14.38;;;10.98;;
75135;SDS011;63707;52.212;9.540;2023-03-01T08:41:20;13.60;;;9.43;;
75135;SDS011;63707;52.212;9.540;2023-03-01T08:43:47;14.88;;;10.23;;
75135;SDS011;63707;52.212;9.540;2023-03-01T08:46:12;17.52;;;9.65;;
75135;SDS011;63707;52.212;9.540;2023-03-01T08:48:38;13.68;;;9.93;;
75135;SDS011;63707;52.212;9.540;2023-03-01T08:51:08;11.65;;;9.45;;
75135;SDS011;63707;52.212;9.540;2023-03-01T08:53:34;11.07;;;9.13;;
75135;SDS011;63707;52.212;9.540;2023-03-01T08:55:59;14.52;;;9.63;;
75135;SDS011;63707;52.212;9.540;2023-03-01T08:58:26;11.70;;;9.50;;
75135;SDS011;63707;52.212;9.540;2023-03-01T09:00:52;10.27;;;9.02;;
75135;SDS011;63707;52.212;9.540;2023-03-01T09:03:18;9.65;;;7.95;;
75135;SDS011;63707;52.212;9.540;2023-03-01T09:05:43;10.60;;;8.63;;
75135;SDS011;63707;52.212;9.540;2023-03-01T09:08:10;9.63;;;8.35;;
75135;SDS011;63707;52.212;9.540;2023-03-01T09:10:37;9.55;;;7.80;;
75135;SDS011;63707;52.212;9.540;2023-03-01T09:13:03;12.02;;;9.25;;
75135;SDS011;63707;52.212;9.540;2023-03-01T09:15:28;13.75;;;10.57;;
75135;SDS011;63707;52.212;9.540;2023-03-01T09:17:55;13.32;;;9.73;;
75135;SDS011;63707;52.212;9.540;2023-03-01T09:20:21;12.55;;;9.15;;
75135;SDS011;63707;52.212;9.540;2023-03-01T09:22:46;10.55;;;8.80;;
75135;SDS011;63707;52.212;9.540;2023-03-01T09:25:12;10.93;;;7.97;;
75135;SDS011;63707;52.212;9.540;2023-03-01T09:27:37;10.65;;;7.65;;
75135;SDS011;63707;52.212;9.540;2023-03-01T09:30:03;9.60;;;7.47;;
75135;SDS011;63707;52.212;9.540;2023-03-01T09:32:29;9.02;;;6.93;;
75135;SDS011;63707;52.212;9.540;2023-03-01T09:34:57;11.70;;;7.85;;
75135;SDS011;63707;52.212;9.540;2023-03-01T09:37:31;10.57;;;7.95;;
75135;SDS011;63707;52.212;9.540;2023-03-01T09:39:57;8.98;;;8.00;;
75135;SDS011;63707;52.212;9.540;2023-03-01T09:42:23;13.50;;;8.73;;
75135;SDS011;63707;52.212;9.540;2023-03-01T09:44:50;9.90;;;7.78;;
75135;SDS011;63707;52.212;9.540;2023-03-01T09:47:20;9.90;;;7.25;;
75135;SDS011;63707;52.212;9.540;2023-03-01T09:49:50;10.15;;;7.15;;
75135;SDS011;63707;52.212;9.540;2023-03-01T09:52:25;9.43;;;7.25;;
75135;SDS011;63707;52.212;9.540;2023-03-01T09:54:57;9.50;;;7.07;;
75135;SDS011;63707;52.212;9.540;2023-03-01T09:57:26;9.13;;;6.80;;
75135;SDS011;63707;52.212;9.540;2023-03-01T10:00:03;10.07;;;7.50;;
75135;SDS011;63707;52.212;9.540;2023-03-01T10:02:39;10.02;;;7.65;;
75135;SDS011;63707;52.212;9.540;2023-03-01T10:05:23;10.40;;;7.13;;
75135;SDS011;63707;52.212;9.540;2023-03-01T10:08:02;11.23;;;7.35;;
75135;SDS011;63707;52.212;9.540;2023-03-01T10:10:44;9.77;;;6.97;;
75135;SDS011;63707;52.212;9.540;2023-03-01T10:13:14;9.13;;;6.88;;
75135;SDS011;63707;52.212;9.540;2023-03-01T10:15:43;9.55;;;7.15;;
75135;SDS011;63707;52.212;9.540;2023-03-01T10:18:13;9.57;;;7.65;;
75135;SDS011;63707;52.212;9.540;2023-03-01T10:20:45;9.95;;;6.88;;
75135;SDS011;63707;52.212;9.540;2023-03-01T10:23:15;9.18;;;6.88;;
75135;SDS011;63707;52.212;9.540;2023-03-01T10:25:44;10.77;;;7.43;;
75135;SDS011;63707;52.212;9.540;2023-03-01T10:28:25;10.07;;;7.13;;
75135;SDS011;63707;52.212;9.540;2023-03-01T10:30:53;10.25;;;7.80;;
75135;SDS011;63707;52.212;9.540;2023-03-01T10:33:20;10.32;;;8.13;;
75135;SDS011;63707;52.212;9.540;2023-03-01T10:35:49;10.85;;;7.90;;
75135;SDS011;63707;52.212;9.540;2023-03-01T10:38:16;11.63;;;8.05;;
75135;SDS011;63707;52.212;9.540;2023-03-01T10:40:50;12.63;;;7.95;;
75135;SDS011;63707;52.212;9.540;2023-03-01T10:43:18;10.65;;;8.23;;
75135;SDS011;63707;52.212;9.540;2023-03-01T10:45:44;11.25;;;8.40;;
75135;SDS011;63707;52.212;9.540;2023-03-01T10:48:11;11.80;;;8.25;;
75135;SDS011;63707;52.212;9.540;2023-03-01T10:50:38;11.60;;;8.15;;
75135;SDS011;63707;52.212;9.540;2023-03-01T10:53:16;12.13;;;8.93;;
75135;SDS011;63707;52.212;9.540;2023-03-01T10:55:55;10.85;;;9.05;;
75135;SDS011;63707;52.212;9.540;2023-03-01T10:58:23;12.05;;;9.18;;
75135;SDS011;63707;52.212;9.540;2023-03-01T11:00:50;12.65;;;8.98;;
75135;SDS011;63707;52.212;9.540;2023-03-01T11:03:18;11.98;;;8.75;;
75135;SDS011;63707;52.212;9.540;2023-03-01T11:05:55;12.15;;;8.55;;
75135;SDS011;63707;52.212;9.540;2023-03-01T11:08:38;11.43;;;8.77;;
75135;SDS011;63707;52.212;9.540;2023-03-01T11:11:06;10.75;;;8.35;;
75135;SDS011;63707;52.212;9.540;2023-03-01T11:13:46;11.48;;;8.07;;
75135;SDS011;63707;52.212;9.540;2023-03-01T11:16:16;9.93;;;7.97;;
75135;SDS011;63707;52.212;9.540;2023-03-01T11:18:55;9.80;;;7.40;;
75135;SDS011;63707;52.212;9.540;2023-03-01T11:21:21;10.82;;;7.95;;
75135;SDS011;63707;52.212;9.540;2023-03-01T11:23:49;10.05;;;7.93;;
75135;SDS011;63707;52.212;9.540;2023-03-01T11:26:15;11.30;;;8.18;;
75135;SDS011;63707;52.212;9.540;2023-03-01T11:28:43;9.20;;;7.40;;
75135;SDS011;63707;52.212;9.540;2023-03-01T11:31:16;13.20;;;7.32;;
75135;SDS011;63707;52.212;9.540;2023-03-01T11:33:44;7.97;;;6.40;;
75135;SDS011;63707;52.212;9.540;2023-03-01T11:36:16;9.00;;;6.18;;
75135;SDS011;63707;52.212;9.540;2023-03-01T11:38:50;10.25;;;6.95;;
75135;SDS011;63707;52.212;9.540;2023-03-01T11:41:19;7.63;;;6.47;;
75135;SDS011;63707;52.212;9.540;2023-03-01T11:43:51;8.23;;;6.40;;
75135;SDS011;63707;52.212;9.540;2023-03-01T11:46:34;8.43;;;5.95;;
75135;SDS011;63707;52.212;9.540;2023-03-01T11:49:14;11.05;;;5.57;;
75135;SDS011;63707;52.212;9.540;2023-03-01T11:51:53;12.02;;;6.50;;
75135;SDS011;63707;52.212;9.540;2023-03-01T11:54:30;7.93;;;5.03;;
75135;SDS011;63707;52.212;9.540;2023-03-01T11:57:11;8.32;;;5.90;;
75135;SDS011;63707;52.212;9.540;2023-03-01T11:59:50;9.38;;;5.40;;
75135;SDS011;63707;52.212;9.540;2023-03-01T12:05:21;11.18;;;5.50;;
75135;SDS011;63707;52.212;9.540;2023-03-01T12:08:04;9.60;;;5.97;;
75135;SDS011;63707;52.212;9.540;2023-03-01T12:10:37;9.13;;;6.70;;
75135;SDS011;63707;52.212;9.540;2023-03-01T12:13:13;8.32;;;6.28;;
75135;SDS011;63707;52.212;9.540;2023-03-01T12:16:01;10.70;;;5.40;;
75135;SDS011;63707;52.212;9.540;2023-03-01T12:21:59;9.60;;;6.03;;
75135;SDS011;63707;52.212;9.540;2023-03-01T12:24:50;8.57;;;5.95;;
75135;SDS011;63707;52.212;9.540;2023-03-01T12:27:32;8.93;;;5.50;;
75135;SDS011;63707;52.212;9.540;2023-03-01T12:30:14;8.70;;;5.85;;
75135;SDS011;63707;52.212;9.540;2023-03-01T12:32:52;10.57;;;5.97;;
75135;SDS011;63707;52.212;9.540;2023-03-01T12:35:37;7.82;;;5.65;;
75135;SDS011;63707;52.212;9.540;2023-03-01T12:38:18;10.25;;;5.90;;
75135;SDS011;63707;52.212;9.540;2023-03-01T12:40:59;8.50;;;5.63;;
75135;SDS011;63707;52.212;9.540;2023-03-01T12:43:41;8.82;;;5.53;;
75135;SDS011;63707;52.212;9.540;2023-03-01T12:46:21;7.40;;;4.97;;
75135;SDS011;63707;52.212;9.540;2023-03-01T12:48:59;8.75;;;5.78;;
75135;SDS011;63707;52.212;9.540;2023-03-01T12:51:33;7.57;;;5.18;;
75135;SDS011;63707;52.212;9.540;2023-03-01T12:54:01;7.07;;;5.10;;
75135;SDS011;63707;52.212;9.540;2023-03-01T12:56:34;8.05;;;5.80;;
75135;SDS011;63707;52.212;9.540;2023-03-01T12:59:11;10.30;;;5.70;;
75135;SDS011;63707;52.212;9.540;2023-03-01T13:01:45;7.15;;;4.50;;
75135;SDS011;63707;52.212;9.540;2023-03-01T13:04:16;9.15;;;5.30;;
75135;SDS011;63707;52.212;9.540;2023-03-01T13:06:55;6.57;;;4.95;;
75135;SDS011;63707;52.212;9.540;2023-03-01T13:09:29;10.02;;;5.43;;
75135;SDS011;63707;52.212;9.540;2023-03-01T13:12:00;11.23;;;6.00;;
75135;SDS011;63707;52.212;9.540;2023-03-01T13:14:36;7.57;;;5.03;;
75135;SDS011;63707;52.212;9.540;2023-03-01T13:17:20;9.77;;;5.75;;
75135;SDS011;63707;52.212;9.540;2023-03-01T13:19:56;11.57;;;5.97;;
75135;SDS011;63707;52.212;9.540;2023-03-01T13:22:26;10.73;;;6.05;;
75135;SDS011;63707;52.212;9.540;2023-03-01T13:25:00;7.97;;;5.78;;
75135;SDS011;63707;52.212;9.540;2023-03-01T13:27:27;8.02;;;5.38;;
75135;SDS011;63707;52.212;9.540;2023-03-01T13:29:56;8.88;;;4.95;;
75135;SDS011;63707;52.212;9.540;2023-03-01T13:32:25;8.10;;;4.70;;
75135;SDS011;63707;52.212;9.540;2023-03-01T13:34:58;7.75;;;5.03;;
75135;SDS011;63707;52.212;9.540;2023-03-01T13:37:25;5.97;;;4.32;;
75135;SDS011;63707;52.212;9.540;2023-03-01T13:39:54;7.47;;;4.88;;
75135;SDS011;63707;52.212;9.540;2023-03-01T13:42:36;9.52;;;5.00;;
75135;SDS011;63707;52.212;9.540;2023-03-01T13:45:18;7.57;;;4.70;;
75135;SDS011;63707;52.212;9.540;2023-03-01T13:47:46;8.55;;;4.75;;
75135;SDS011;63707;52.212;9.540;2023-03-01T13:50:18;8.13;;;4.53;;
75135;SDS011;63707;52.212;9.540;2023-03-01T13:52:48;7.78;;;4.57;;
75135;SDS011;63707;52.212;9.540;2023-03-01T13:55:17;8.25;;;4.38;;
75135;SDS011;63707;52.212;9.540;2023-03-01T13:57:47;10.77;;;5.10;;
75135;SDS011;63707;52.212;9.540;2023-03-01T14:00:27;10.57;;;4.63;;
75135;SDS011;63707;52.212;9.540;2023-03-01T14:03:04;8.38;;;4.28;;
75135;SDS011;63707;52.212;9.540;2023-03-01T14:05:34;7.97;;;4.70;;
75135;SDS011;63707;52.212;9.540;2023-03-01T14:08:01;9.52;;;4.45;;
75135;SDS011;63707;52.212;9.540;2023-03-01T14:10:29;12.52;;;4.68;;
75135;SDS011;63707;52.212;9.540;2023-03-01T14:13:08;8.20;;;4.25;;
75135;SDS011;63707;52.212;9.540;2023-03-01T14:15:50;7.43;;;4.28;;
75135;SDS011;63707;52.212;9.540;2023-03-01T14:18:30;9.90;;;4.40;;
75135;SDS011;63707;52.212;9.540;2023-03-01T14:21:00;8.38;;;4.72;;
75135;SDS011;63707;52.212;9.540;2023-03-01T14:23:32;9.93;;;4.72;;
75135;SDS011;63707;52.212;9.540;2023-03-01T14:25:59;11.07;;;4.60;;
75135;SDS011;63707;52.212;9.540;2023-03-01T14:28:26;9.82;;;4.75;;
75135;SDS011;63707;52.212;9.540;2023-03-01T14:30:55;9.57;;;4.35;;
75135;SDS011;63707;52.212;9.540;2023-03-01T14:33:23;10.82;;;4.60;;
75135;SDS011;63707;52.212;9.540;2023-03-01T14:35:57;7.93;;;4.78;;
75135;SDS011;63707;52.212;9.540;2023-03-01T14:38:28;7.13;;;4.05;;
75135;SDS011;63707;52.212;9.540;2023-03-01T14:40:56;9.73;;;4.90;;
75135;SDS011;63707;52.212;9.540;2023-03-01T14:43:26;6.82;;;4.22;;
75135;SDS011;63707;52.212;9.540;2023-03-01T14:45:55;8.80;;;4.50;;
75135;SDS011;63707;52.212;9.540;2023-03-01T14:48:21;8.68;;;4.55;;
75135;SDS011;63707;52.212;9.540;2023-03-01T14:50:46;9.70;;;4.60;;
75135;SDS011;63707;52.212;9.540;2023-03-01T14:53:15;9.45;;;4.70;;
75135;SDS011;63707;52.212;9.540;2023-03-01T14:55:44;8.15;;;4.30;;